Time;durP1;ratioP1;P1;durP2;ratioP2;P2;SDS_P1;SDS_P2;PMS_P1;PMS_P2;Temp;Humidity;BMP_temperature;BMP_pressure;BME280_temperature;BME280_humidity;BME280_pressure;Samples;Min_cycle;Max_cycle;Signal;HPM_P1;HPM_P2
2022/03/06 00:01:55;;;;;;;47.58;22.30;;;-0.70;99.90;;;;;;5082147;27;20911;-87
2022/03/06 00:04:21;;;;;;;41.38;20.95;;;-0.70;99.90;;;;;;5092046;27;20122;-87
2022/03/06 00:06:46;;;;;;;48.90;23.23;;;-0.80;99.90;;;;;;5097810;27;20906;-88
2022/03/06 00:09:12;;;;;;;42.75;21.65;;;-0.80;99.90;;;;;;5078697;28;20032;-88
2022/03/06 00:11:38;;;;;;;43.20;20.92;;;-0.90;99.90;;;;;;5081054;28;20043;-85
2022/03/06 00:14:04;;;;;;;44.20;21.92;;;-0.90;99.90;;;;;;5081390;28;20394;-87
2022/03/06 00:16:29;;;;;;;39.97;19.92;;;-1.00;99.90;;;;;;5082418;28;20032;-85
2022/03/06 00:18:55;;;;;;;40.50;19.65;;;-1.00;99.90;;;;;;5096872;28;20040;-87
2022/03/06 00:21:20;;;;;;;38.75;19.50;;;-1.00;99.90;;;;;;5079181;28;20135;-87
2022/03/06 00:23:46;;;;;;;43.50;21.20;;;-0.90;99.90;;;;;;5080410;28;20513;-88
2022/03/06 00:26:12;;;;;;;44.67;19.60;;;-0.90;99.90;;;;;;5093141;28;20501;-87
2022/03/06 00:28:37;;;;;;;39.75;18.85;;;-1.20;99.90;;;;;;5066857;27;20181;-86
2022/03/06 00:31:03;;;;;;;41.97;19.00;;;-1.00;99.90;;;;;;5094360;28;20080;-87
2022/03/06 00:33:28;;;;;;;45.33;20.02;;;-1.00;99.90;;;;;;5075688;27;20108;-86
2022/03/06 00:35:54;;;;;;;38.35;18.38;;;-1.20;99.90;;;;;;5080967;27;20433;-86
2022/03/06 00:38:19;;;;;;;44.15;20.23;;;-1.00;99.90;;;;;;5080602;28;20060;-85
2022/03/06 00:40:45;;;;;;;37.63;18.85;;;-1.20;99.90;;;;;;5077251;28;20032;-87
2022/03/06 00:43:11;;;;;;;45.70;21.83;;;-1.30;99.90;;;;;;5084474;27;20315;-87
2022/03/06 00:45:37;;;;;;;44.33;20.95;;;-1.40;99.90;;;;;;5080720;28;20426;-86
2022/03/06 00:48:02;;;;;;;44.55;20.05;;;-1.30;99.90;;;;;;5077613;28;20035;-85
2022/03/06 00:50:28;;;;;;;34.00;16.02;;;-1.40;99.90;;;;;;5080143;27;20444;-85
2022/03/06 00:52:56;;;;;;;46.00;21.50;;;-1.20;99.90;;;;;;5076377;27;20032;-85
2022/03/06 00:55:22;;;;;;;37.95;17.52;;;-1.20;99.90;;;;;;5096315;28;20049;-86
2022/03/06 00:57:47;;;;;;;44.28;20.55;;;-1.00;99.90;;;;;;5078514;28;20631;-86
2022/03/06 01:00:13;;;;;;;37.90;16.58;;;-1.10;99.90;;;;;;5079978;28;20043;-85
2022/03/06 01:02:39;;;;;;;46.90;21.25;;;-1.20;99.90;;;;;;5082790;27;20019;-86
2022/03/06 01:05:04;;;;;;;45.22;20.67;;;-1.10;99.90;;;;;;5086755;28;20386;-85
2022/03/06 01:07:30;;;;;;;50.85;22.73;;;-1.30;99.90;;;;;;5080132;28;20482;-86
2022/03/06 01:09:56;;;;;;;45.10;21.88;;;-1.50;99.90;;;;;;5098132;27;20039;-87
2022/03/06 01:12:21;;;;;;;51.83;22.85;;;-1.50;99.90;;;;;;5078022;28;20036;-87
2022/03/06 01:14:47;;;;;;;44.92;20.90;;;-1.60;99.90;;;;;;5066623;27;20028;-86
2022/03/06 01:17:12;;;;;;;49.33;20.95;;;-1.60;99.90;;;;;;5092667;27;20028;-86
2022/03/06 01:19:38;;;;;;;46.15;22.67;;;-1.70;99.90;;;;;;5096891;28;20035;-84
2022/03/06 01:22:04;;;;;;;45.50;20.88;;;-1.60;99.90;;;;;;5080060;28;20055;-87
2022/03/06 01:24:29;;;;;;;44.75;21.35;;;-1.60;99.90;;;;;;5076782;28;20055;-85
2022/03/06 01:26:55;;;;;;;44.15;21.80;;;-1.70;99.90;;;;;;5094640;27;20089;-85
2022/03/06 01:29:22;;;;;;;47.15;23.02;;;-1.60;99.90;;;;;;5093925;28;20031;-86
2022/03/06 01:31:48;;;;;;;51.42;22.75;;;-1.80;99.90;;;;;;5076029;27;20035;-79
2022/03/06 01:34:14;;;;;;;46.78;21.52;;;-1.80;99.90;;;;;;5092855;28;20043;-79
2022/03/06 01:36:39;;;;;;;47.25;23.33;;;-1.80;99.90;;;;;;5091080;27;20032;-80
2022/03/06 01:39:06;;;;;;;46.13;20.88;;;-1.80;99.90;;;;;;5079605;28;20044;-79
2022/03/06 01:41:35;;;;;;;47.42;23.27;;;-1.90;99.90;;;;;;5090629;27;20491;-80
2022/03/06 01:44:01;;;;;;;46.92;21.90;;;-1.90;99.90;;;;;;5062295;28;20036;-80
2022/03/06 01:46:26;;;;;;;47.70;22.45;;;-1.80;99.90;;;;;;5078179;28;20085;-81
2022/03/06 01:48:52;;;;;;;49.00;23.20;;;-1.80;99.90;;;;;;5078352;28;20020;-78
2022/03/06 01:51:17;;;;;;;51.28;23.27;;;-1.60;99.90;;;;;;5079241;28;20044;-82
2022/03/06 01:53:43;;;;;;;44.83;21.60;;;-1.80;99.90;;;;;;5069143;27;20060;-81
2022/03/06 01:56:09;;;;;;;41.78;20.83;;;-1.80;99.90;;;;;;5093097;28;20368;-80
2022/03/06 01:58:34;;;;;;;42.75;20.70;;;-1.90;99.90;;;;;;5096399;28;20032;-80
2022/03/06 02:01:00;;;;;;;49.70;21.48;;;-2.00;99.90;;;;;;5060975;27;20088;-80
2022/03/06 02:03:25;;;;;;;45.10;22.27;;;-2.10;99.90;;;;;;5090924;27;20127;-80
2022/03/06 02:05:51;;;;;;;45.67;21.60;;;-2.20;99.90;;;;;;5095525;28;20038;-80
2022/03/06 02:08:17;;;;;;;46.88;21.05;;;-2.30;99.90;;;;;;5077680;28;20604;-80
2022/03/06 02:10:42;;;;;;;45.10;21.70;;;-2.30;99.90;;;;;;5062304;27;20439;-80
2022/03/06 02:13:08;;;;;;;46.97;20.52;;;-2.30;99.90;;;;;;5079853;28;20028;-80
2022/03/06 02:15:33;;;;;;;45.25;21.45;;;-2.40;99.90;;;;;;5079739;28;20035;-80
2022/03/06 02:17:59;;;;;;;46.30;21.73;;;-2.30;99.90;;;;;;5095573;28;20908;-80
2022/03/06 02:20:25;;;;;;;46.08;21.42;;;-2.30;99.90;;;;;;5078585;27;20031;-80
2022/03/06 02:22:54;;;;;;;43.65;20.23;;;-2.30;99.90;;;;;;5078400;27;20044;-81
2022/03/06 02:25:22;;;;;;;40.70;19.92;;;-2.40;99.90;;;;;;5092579;28;20549;-80
2022/03/06 02:27:48;;;;;;;49.83;21.77;;;-2.40;99.90;;;;;;5083297;28;20032;-81
2022/03/06 02:30:16;;;;;;;45.38;21.13;;;-2.40;99.90;;;;;;5076273;27;20498;-80
2022/03/06 02:32:43;;;;;;;44.58;22.08;;;-2.50;99.90;;;;;;5089657;28;20380;-80
2022/03/06 02:35:09;;;;;;;42.35;21.98;;;-2.50;99.90;;;;;;5079005;28;20020;-79
2022/03/06 02:37:34;;;;;;;41.70;20.00;;;-2.50;99.90;;;;;;5075727;28;20511;-80
2022/03/06 02:40:00;;;;;;;46.97;22.50;;;-2.50;99.90;;;;;;5093252;28;20173;-81
2022/03/06 02:42:34;;;;;;;46.17;20.80;;;-2.50;99.90;;;;;;5078691;28;20040;-81
2022/03/06 02:45:01;;;;;;;47.50;22.23;;;-2.50;99.90;;;;;;5077848;28;20032;-80
2022/03/06 02:47:27;;;;;;;49.30;20.88;;;-2.50;99.90;;;;;;5061266;27;20027;-80
2022/03/06 02:49:52;;;;;;;46.97;21.50;;;-2.50;99.90;;;;;;5092788;28;20023;-81
2022/03/06 02:52:18;;;;;;;46.63;22.80;;;-2.50;99.90;;;;;;5063176;28;20070;-79
2022/03/06 02:54:44;;;;;;;46.15;20.98;;;-2.60;99.90;;;;;;5072890;28;20597;-80
2022/03/06 02:57:10;;;;;;;45.67;20.77;;;-2.60;99.90;;;;;;5064166;28;20039;-81
2022/03/06 02:59:35;;;;;;;43.47;20.73;;;-2.70;99.90;;;;;;5094361;28;20028;-80
2022/03/06 03:02:01;;;;;;;49.17;20.75;;;-2.70;99.90;;;;;;5078171;27;20089;-80
2022/03/06 03:04:26;;;;;;;43.75;20.45;;;-2.70;99.90;;;;;;5078824;28;20044;-80
2022/03/06 03:06:52;;;;;;;41.50;19.75;;;-2.80;99.90;;;;;;5067207;28;20119;-80
2022/03/06 03:09:21;;;;;;;50.88;20.80;;;-2.80;99.90;;;;;;5082686;28;20039;-80
2022/03/06 03:11:50;;;;;;;47.80;21.17;;;-2.80;99.90;;;;;;5065661;27;20032;-80
2022/03/06 03:14:16;;;;;;;50.45;21.17;;;-2.80;99.90;;;;;;5066693;27;20055;-80
2022/03/06 03:16:42;;;;;;;48.40;22.58;;;-2.80;99.90;;;;;;5070549;27;20387;-80
2022/03/06 03:19:07;;;;;;;48.17;21.38;;;-2.70;99.90;;;;;;5079400;28;20176;-79
2022/03/06 03:21:33;;;;;;;51.70;22.20;;;-2.70;99.90;;;;;;5079632;27;20108;-80
2022/03/06 03:23:58;;;;;;;48.50;22.58;;;-2.80;99.90;;;;;;5082420;28;20078;-80
2022/03/06 03:26:24;;;;;;;47.63;21.38;;;-2.90;99.90;;;;;;5099877;27;20440;-79
2022/03/06 03:28:50;;;;;;;51.53;22.90;;;-2.90;99.90;;;;;;5074442;27;20050;-80
2022/03/06 03:31:15;;;;;;;43.88;21.15;;;-3.00;99.90;;;;;;5095882;28;20477;-80
2022/03/06 03:33:41;;;;;;;47.50;21.00;;;-3.00;99.90;;;;;;5066821;28;20020;-80
2022/03/06 03:36:06;;;;;;;53.50;21.77;;;-3.00;99.90;;;;;;5095915;28;20328;-81
2022/03/06 03:38:32;;;;;;;52.85;22.73;;;-2.90;99.90;;;;;;5081765;27;20032;-80
2022/03/06 03:40:57;;;;;;;49.08;21.88;;;-2.90;99.90;;;;;;5095533;28;20038;-80
2022/03/06 03:43:23;;;;;;;48.88;23.25;;;-2.90;99.90;;;;;;5081010;28;20036;-80
2022/03/06 03:45:49;;;;;;;52.13;22.50;;;-2.90;99.90;;;;;;5079025;28;20060;-80
2022/03/06 03:48:14;;;;;;;52.50;23.98;;;-2.90;99.90;;;;;;5099455;27;20035;-79
2022/03/06 03:50:40;;;;;;;49.80;21.95;;;-2.90;99.90;;;;;;5080292;28;20024;-79
2022/03/06 03:53:06;;;;;;;47.25;22.45;;;-2.80;99.90;;;;;;5080377;28;20436;-80
2022/03/06 03:55:31;;;;;;;48.65;22.40;;;-2.80;99.90;;;;;;5083018;28;20028;-79
2022/03/06 03:57:57;;;;;;;42.92;20.73;;;-2.80;99.90;;;;;;5078237;27;20035;-79
2022/03/06 04:00:22;;;;;;;48.53;20.60;;;-2.80;99.90;;;;;;5079132;28;20032;-79
2022/03/06 04:02:48;;;;;;;41.80;20.00;;;-2.70;99.90;;;;;;5081445;28;20023;-79
2022/03/06 04:05:13;;;;;;;42.83;20.75;;;-2.50;99.90;;;;;;5063067;27;20036;-79
2022/03/06 04:07:39;;;;;;;52.25;21.88;;;-2.40;99.90;;;;;;5080334;28;20035;-80
2022/03/06 04:10:05;;;;;;;47.03;21.52;;;-2.60;99.90;;;;;;5078737;28;20032;-79
2022/03/06 04:12:30;;;;;;;43.65;20.58;;;-2.80;99.90;;;;;;5077753;28;20051;-79
2022/03/06 04:14:56;;;;;;;43.03;20.17;;;-2.80;99.90;;;;;;5075576;27;20039;-79
2022/03/06 04:17:21;;;;;;;47.97;20.98;;;-2.90;99.90;;;;;;5075342;27;20027;-80
2022/03/06 04:19:47;;;;;;;44.20;21.20;;;-2.80;99.90;;;;;;5082189;28;20563;-79
2022/03/06 04:22:13;;;;;;;44.28;21.92;;;-2.70;99.90;;;;;;5092895;28;20527;-80
2022/03/06 04:24:38;;;;;;;44.85;23.17;;;-2.80;99.90;;;;;;5078895;28;20035;-79
2022/03/06 04:27:04;;;;;;;44.80;21.67;;;-2.70;99.90;;;;;;5084731;27;20805;-80
2022/03/06 04:29:30;;;;;;;48.92;22.13;;;-2.80;99.90;;;;;;5091168;27;20762;-80
2022/03/06 04:31:56;;;;;;;51.15;21.27;;;-2.80;99.90;;;;;;5093961;27;20023;-79
2022/03/06 04:34:21;;;;;;;50.78;22.25;;;-2.80;99.90;;;;;;5091417;27;20118;-79
2022/03/06 04:36:47;;;;;;;50.40;22.95;;;-2.60;99.90;;;;;;5062973;27;20085;-82
2022/03/06 04:39:12;;;;;;;51.78;23.20;;;-2.60;99.90;;;;;;5080459;28;20458;-80
2022/03/06 04:41:38;;;;;;;55.78;24.35;;;-2.50;99.90;;;;;;5074396;28;20590;-80
2022/03/06 04:44:04;;;;;;;50.67;23.33;;;-2.40;99.90;;;;;;5094373;28;20050;-79
2022/03/06 04:46:31;;;;;;;51.25;24.17;;;-2.50;99.90;;;;;;5062826;28;20124;-79
2022/03/06 04:48:56;;;;;;;48.40;24.17;;;-2.50;99.90;;;;;;5080246;28;20047;-80
2022/03/06 04:51:22;;;;;;;49.22;23.50;;;-2.50;99.90;;;;;;5065463;28;20028;-80
2022/03/06 04:53:47;;;;;;;48.58;23.85;;;-2.30;99.90;;;;;;5077977;28;20031;-79
2022/03/06 04:56:13;;;;;;;50.50;23.92;;;-2.50;99.90;;;;;;5064766;28;20538;-80
2022/03/06 04:58:39;;;;;;;54.83;23.10;;;-2.50;99.90;;;;;;5079323;28;20114;-80
2022/03/06 05:01:07;;;;;;;50.10;23.58;;;-2.50;99.90;;;;;;5063184;28;20048;-80
2022/03/06 05:03:56;;;;;;;52.33;23.42;;;-2.40;99.90;;;;;;5073321;27;20399;-80
2022/03/06 05:06:22;;;;;;;45.35;21.75;;;-2.40;99.90;;;;;;5067101;27;20036;-81
2022/03/06 05:08:50;;;;;;;48.35;23.88;;;-2.60;99.90;;;;;;5075282;27;20042;-80
2022/03/06 05:11:22;;;;;;;42.88;19.85;;;-2.60;99.90;;;;;;5071881;28;20096;-81
2022/03/06 05:13:54;;;;;;;47.38;21.27;;;-2.60;99.90;;;;;;5057763;28;20019;-80
2022/03/06 05:16:20;;;;;;;48.17;24.73;;;-2.50;99.90;;;;;;5070671;27;20043;-80
2022/03/06 05:18:46;;;;;;;45.92;23.50;;;-2.60;99.90;;;;;;5068609;27;20044;-81
2022/03/06 05:21:12;;;;;;;47.92;23.02;;;-2.80;99.90;;;;;;5086586;28;20490;-80
2022/03/06 05:23:37;;;;;;;48.70;23.02;;;-2.80;99.90;;;;;;5040603;28;20131;-80
2022/03/06 05:26:03;;;;;;;45.55;22.17;;;-2.70;99.90;;;;;;5082193;28;20515;-81
2022/03/06 05:28:29;;;;;;;48.90;23.67;;;-2.70;99.90;;;;;;5080451;28;20398;-80
2022/03/06 05:31:02;;;;;;;44.05;21.85;;;-2.70;99.90;;;;;;5074103;27;20039;-81
2022/03/06 05:33:36;;;;;;;49.38;21.83;;;-2.70;99.90;;;;;;5080280;27;20038;-82
2022/03/06 05:36:01;;;;;;;53.17;22.88;;;-2.80;99.90;;;;;;5062114;28;20024;-79
2022/03/06 05:38:27;;;;;;;38.55;20.15;;;-2.80;99.90;;;;;;5098659;28;20062;-80
2022/03/06 05:40:53;;;;;;;44.33;21.80;;;-2.80;99.90;;;;;;5063320;27;20391;-80
2022/03/06 05:43:21;;;;;;;44.17;22.70;;;-2.80;99.90;;;;;;5063698;28;20093;-79
2022/03/06 05:45:52;;;;;;;42.10;23.00;;;-2.60;99.90;;;;;;5067961;27;20030;-82
2022/03/06 05:48:24;;;;;;;48.20;21.80;;;-2.90;99.90;;;;;;5041174;27;20042;-82
2022/03/06 05:50:50;;;;;;;45.28;21.10;;;-3.00;99.90;;;;;;5079867;28;20036;-79
2022/03/06 05:53:20;;;;;;;40.72;20.55;;;-2.90;99.90;;;;;;5076161;28;20027;-81
2022/03/06 05:55:46;;;;;;;41.80;20.67;;;-2.90;99.90;;;;;;5060595;28;20028;-79
2022/03/06 05:58:12;;;;;;;41.22;21.02;;;-2.90;99.90;;;;;;5094218;28;20028;-79
2022/03/06 06:00:40;;;;;;;47.65;20.73;;;-3.00;99.90;;;;;;5095558;28;20043;-81
2022/03/06 06:03:14;;;;;;;40.08;20.27;;;-3.00;99.90;;;;;;5056947;28;20055;-81
2022/03/06 06:05:39;;;;;;;42.45;22.08;;;-3.00;99.90;;;;;;5075384;27;20027;-80
2022/03/06 06:08:05;;;;;;;44.08;21.77;;;-2.90;99.90;;;;;;5095418;27;20027;-80
2022/03/06 06:10:31;;;;;;;41.08;21.75;;;-2.90;99.90;;;;;;5071899;27;20028;-80
2022/03/06 06:13:03;;;;;;;48.30;21.80;;;-2.90;99.90;;;;;;5047522;28;20024;-80
2022/03/06 06:15:28;;;;;;;38.60;20.95;;;-3.00;99.90;;;;;;5063782;27;20028;-80
2022/03/06 06:18:09;;;;;;;42.88;22.25;;;-3.00;99.90;;;;;;5063669;28;20035;-79
2022/03/06 06:20:36;;;;;;;43.58;21.13;;;-3.00;99.90;;;;;;5052904;28;20114;-79
2022/03/06 06:23:03;;;;;;;42.63;21.10;;;-3.20;99.90;;;;;;5080800;28;20510;-80
2022/03/06 06:25:29;;;;;;;41.55;20.00;;;-3.10;99.90;;;;;;5058094;27;20031;-80
2022/03/06 06:28:11;;;;;;;42.22;20.63;;;-3.10;99.90;;;;;;5068605;28;20491;-81
2022/03/06 06:30:40;;;;;;;39.20;19.02;;;-3.00;99.90;;;;;;5093524;27;20036;-82
2022/03/06 06:33:05;;;;;;;40.17;20.35;;;-3.00;99.90;;;;;;5070304;27;20041;-80
2022/03/06 06:35:32;;;;;;;39.78;20.70;;;-3.10;99.90;;;;;;5051807;27;20023;-81
2022/03/06 06:38:01;;;;;;;42.03;21.17;;;-3.00;99.90;;;;;;5071537;28;20038;-82
2022/03/06 06:40:31;;;;;;;45.22;20.88;;;-3.00;99.90;;;;;;5063531;28;20039;-79
2022/03/06 06:43:03;;;;;;;41.00;21.40;;;-2.90;99.90;;;;;;5060681;28;20024;-80
2022/03/06 06:45:29;;;;;;;39.08;20.20;;;-3.00;99.90;;;;;;5100349;27;20119;-79
2022/03/06 06:47:56;;;;;;;40.53;20.48;;;-2.90;99.90;;;;;;5072115;28;20584;-79
2022/03/06 06:50:22;;;;;;;46.50;21.20;;;-3.00;99.90;;;;;;5102728;27;20380;-81
2022/03/06 06:52:48;;;;;;;48.20;21.45;;;-2.80;99.90;;;;;;5071108;28;20035;-82
2022/03/06 06:55:19;;;;;;;48.60;22.80;;;-2.60;99.90;;;;;;5066775;28;20039;-80
2022/03/06 06:57:47;;;;;;;48.47;23.67;;;-2.60;99.90;;;;;;5057884;28;20131;-81
2022/03/06 07:00:17;;;;;;;46.13;23.02;;;-2.60;99.90;;;;;;5056964;28;20053;-79
2022/03/06 07:02:52;;;;;;;44.75;21.75;;;-2.60;99.90;;;;;;5058666;28;20016;-80
2022/03/06 07:05:21;;;;;;;42.13;20.55;;;-2.50;99.90;;;;;;5081670;28;20034;-83
2022/03/06 07:07:46;;;;;;;51.78;23.00;;;-2.40;99.90;;;;;;5073129;28;20032;-80
2022/03/06 07:10:12;;;;;;;44.47;22.42;;;-2.30;99.90;;;;;;5100120;28;20043;-79
2022/03/06 07:12:45;;;;;;;47.97;22.73;;;-2.20;99.90;;;;;;5079126;27;20402;-78
2022/03/06 07:15:11;;;;;;;45.00;22.25;;;-2.20;99.90;;;;;;5095762;28;20029;-79
2022/03/06 07:17:37;;;;;;;47.13;22.02;;;-2.20;99.90;;;;;;5093508;28;20119;-79
2022/03/06 07:20:03;;;;;;;47.72;24.88;;;-2.10;99.90;;;;;;5079761;27;20610;-79
2022/03/06 07:22:29;;;;;;;45.55;24.00;;;-2.10;99.90;;;;;;5094571;28;20040;-79
2022/03/06 07:24:55;;;;;;;49.25;25.23;;;-2.00;99.90;;;;;;5094996;28;20040;-79
2022/03/06 07:27:20;;;;;;;54.67;26.38;;;-2.00;99.90;;;;;;5092186;27;20059;-78
2022/03/06 07:29:46;;;;;;;50.50;28.35;;;-1.90;99.90;;;;;;5085113;27;20038;-79
2022/03/06 07:32:13;;;;;;;47.78;25.92;;;-1.90;99.90;;;;;;5061036;28;20042;-79
2022/03/06 07:34:39;;;;;;;52.03;26.75;;;-1.90;99.90;;;;;;5093240;28;20055;-78
2022/03/06 07:37:04;;;;;;;52.70;28.77;;;-1.70;99.90;;;;;;5076139;28;20024;-79
2022/03/06 07:39:30;;;;;;;48.25;25.15;;;-1.70;99.90;;;;;;5077565;28;20039;-79
2022/03/06 07:41:56;;;;;;;49.83;25.42;;;-1.70;99.90;;;;;;5094931;27;20031;-79
2022/03/06 07:44:21;;;;;;;48.28;26.73;;;-1.60;99.90;;;;;;5080701;28;20036;-79
2022/03/06 07:46:47;;;;;;;46.22;24.95;;;-1.30;99.90;;;;;;5071267;28;20034;-79
2022/03/06 07:49:13;;;;;;;43.25;22.75;;;-1.30;99.90;;;;;;5092775;28;20027;-79
2022/03/06 07:51:40;;;;;;;45.75;23.85;;;-1.00;99.90;;;;;;5076973;27;20039;-78
2022/03/06 07:54:08;;;;;;;40.75;23.00;;;-0.70;99.90;;;;;;5079483;27;20028;-78
2022/03/06 07:56:33;;;;;;;39.97;22.90;;;-0.70;99.90;;;;;;5080417;28;20048;-78
2022/03/06 07:58:59;;;;;;;37.50;21.90;;;-0.60;99.90;;;;;;5066199;28;20071;-78
2022/03/06 08:01:25;;;;;;;44.60;23.05;;;-0.40;99.90;;;;;;5077656;27;20499;-79
2022/03/06 08:03:50;;;;;;;41.97;23.17;;;-0.30;99.90;;;;;;5092094;28;20664;-78
2022/03/06 08:06:16;;;;;;;43.20;23.80;;;-0.30;99.90;;;;;;5078557;28;20739;-78
2022/03/06 08:08:43;;;;;;;43.75;22.65;;;-0.30;99.90;;;;;;5096009;27;20059;-78
2022/03/06 08:11:09;;;;;;;37.42;21.13;;;-0.40;99.90;;;;;;5093637;28;20032;-78
2022/03/06 08:13:34;;;;;;;40.65;24.50;;;-0.30;99.90;;;;;;5095958;27;20032;-80
2022/03/06 08:16:00;;;;;;;42.03;23.13;;;-0.10;99.90;;;;;;5078520;27;20031;-79
2022/03/06 08:18:25;;;;;;;37.80;21.10;;;-0.20;99.90;;;;;;5080241;27;20415;-79
2022/03/06 08:20:51;;;;;;;39.00;21.58;;;-0.10;99.90;;;;;;5071408;28;20479;-78
2022/03/06 08:23:16;;;;;;;40.83;22.27;;;0.10;99.90;;;;;;5084182;28;22028;-79
2022/03/06 08:25:42;;;;;;;37.50;22.10;;;0.10;99.90;;;;;;5096066;28;20058;-78
2022/03/06 08:28:07;;;;;;;38.00;20.23;;;0.20;99.90;;;;;;5092958;27;20967;-79
2022/03/06 08:30:33;;;;;;;34.30;20.98;;;0.20;99.90;;;;;;5074211;27;20036;-78
2022/03/06 08:32:58;;;;;;;34.65;19.83;;;0.40;99.90;;;;;;5079922;27;20044;-78
2022/03/06 08:35:24;;;;;;;32.78;18.98;;;0.50;99.90;;;;;;5079055;28;20036;-79
2022/03/06 08:37:49;;;;;;;36.17;20.30;;;0.70;99.90;;;;;;5078455;28;20034;-78
2022/03/06 08:40:16;;;;;;;34.90;21.42;;;0.60;99.90;;;;;;5077032;27;20036;-79
2022/03/06 08:42:42;;;;;;;33.38;18.80;;;0.70;99.90;;;;;;5080362;28;20043;-78
2022/03/06 08:45:08;;;;;;;30.50;19.05;;;0.70;99.90;;;;;;5092859;27;20031;-79
2022/03/06 08:47:33;;;;;;;33.03;19.13;;;0.90;99.90;;;;;;5092443;28;20027;-79
2022/03/06 08:49:59;;;;;;;32.60;19.05;;;1.00;99.90;;;;;;5076227;28;20439;-79
2022/03/06 08:52:24;;;;;;;33.80;18.40;;;1.10;99.90;;;;;;5078514;28;20043;-79
2022/03/06 08:54:50;;;;;;;30.80;16.95;;;1.20;99.90;;;;;;5069709;28;20046;-79
2022/03/06 08:57:15;;;;;;;32.05;19.13;;;1.20;99.90;;;;;;5086714;27;20035;-78
2022/03/06 08:59:41;;;;;;;34.80;21.30;;;1.40;99.90;;;;;;5072357;27;20034;-79
2022/03/06 09:02:07;;;;;;;31.23;18.70;;;1.40;99.90;;;;;;5064704;27;20068;-79
2022/03/06 09:04:33;;;;;;;28.75;16.98;;;1.40;99.90;;;;;;5080189;27;20078;-80
2022/03/06 09:06:59;;;;;;;30.85;16.83;;;1.60;99.90;;;;;;5080202;28;20115;-79
2022/03/06 09:09:24;;;;;;;29.98;17.40;;;2.00;99.90;;;;;;5064622;28;20119;-79
2022/03/06 09:11:51;;;;;;;29.90;18.27;;;2.10;99.90;;;;;;5070822;28;20055;-79
2022/03/06 09:14:16;;;;;;;28.85;17.23;;;2.00;99.90;;;;;;5065274;28;20028;-78
2022/03/06 09:16:42;;;;;;;29.95;17.45;;;2.00;99.90;;;;;;5077467;28;20266;-79
2022/03/06 09:19:08;;;;;;;34.25;17.73;;;2.00;99.90;;;;;;5097003;28;20633;-80
2022/03/06 09:21:33;;;;;;;29.63;16.80;;;2.20;99.90;;;;;;5086000;28;20056;-78
2022/03/06 09:23:59;;;;;;;28.27;17.50;;;2.10;99.90;;;;;;5081278;27;20031;-79
2022/03/06 09:26:25;;;;;;;29.50;16.10;;;2.20;99.90;;;;;;5096769;27;20039;-80
2022/03/06 09:28:50;;;;;;;30.98;18.00;;;2.20;99.90;;;;;;5070634;28;20123;-79
2022/03/06 09:31:16;;;;;;;29.15;17.52;;;2.20;99.90;;;;;;5063465;27;20020;-79
2022/03/06 09:33:41;;;;;;;27.50;14.50;;;2.30;99.90;;;;;;5093454;27;20063;-79
2022/03/06 09:36:07;;;;;;;28.67;16.67;;;2.40;99.90;;;;;;5096723;27;20059;-79
2022/03/06 09:38:32;;;;;;;26.85;15.95;;;2.70;99.90;;;;;;5077952;27;20051;-80
2022/03/06 09:41:03;;;;;;;24.98;16.40;;;2.70;99.90;;;;;;5067502;27;20085;-79
2022/03/06 09:43:29;;;;;;;26.05;16.25;;;2.80;99.90;;;;;;5096722;27;20046;-79
2022/03/06 09:46:03;;;;;;;28.20;16.23;;;2.70;99.90;;;;;;5092308;27;20039;-79
2022/03/06 09:48:30;;;;;;;28.85;16.73;;;2.70;99.90;;;;;;5076985;27;20134;-78
2022/03/06 09:50:56;;;;;;;26.77;17.42;;;2.70;99.90;;;;;;5089837;27;20451;-78
2022/03/06 09:53:21;;;;;;;26.30;16.13;;;2.90;99.90;;;;;;5079758;28;20115;-78
2022/03/06 09:55:47;;;;;;;28.23;16.73;;;2.80;99.90;;;;;;5067186;28;20123;-79
2022/03/06 09:58:14;;;;;;;27.90;15.15;;;2.80;99.90;;;;;;5075842;28;20114;-79
2022/03/06 10:00:39;;;;;;;26.33;16.25;;;2.80;99.90;;;;;;5097820;27;20082;-80
2022/03/06 10:03:05;;;;;;;25.10;14.82;;;2.80;99.90;;;;;;5082969;28;20047;-79
2022/03/06 10:05:35;;;;;;;25.80;14.75;;;3.00;99.90;;;;;;5097452;28;20484;-79
2022/03/06 10:08:18;;;;;;;25.23;14.82;;;3.30;99.90;;;;;;5082100;28;20098;-79
2022/03/06 10:10:58;;;;;;;26.27;15.77;;;3.40;99.90;;;;;;5098500;27;20047;-80
2022/03/06 10:13:25;;;;;;;24.00;15.18;;;3.40;99.90;;;;;;5093848;28;20024;-79
2022/03/06 10:16:14;;;;;;;23.58;15.77;;;3.60;99.90;;;;;;5104363;28;20032;-79
2022/03/06 10:18:50;;;;;;;21.27;14.45;;;3.20;99.90;;;;;;5079720;28;20063;-80
2022/03/06 10:21:20;;;;;;;22.92;14.98;;;3.50;99.90;;;;;;5082161;28;20035;-81
2022/03/06 10:24:08;;;;;;;26.20;16.15;;;3.60;99.90;;;;;;5080927;28;20039;-80
2022/03/06 10:26:35;;;;;;;22.77;14.48;;;3.80;99.90;;;;;;5089212;27;20056;-81
2022/03/06 10:29:05;;;;;;;24.02;14.88;;;3.80;99.90;;;;;;5080156;27;20156;-81
2022/03/06 10:31:34;;;;;;;22.15;14.20;;;3.70;99.90;;;;;;5084577;28;20494;-81
2022/03/06 10:34:10;;;;;;;23.98;15.07;;;4.00;99.90;;;;;;5085714;28;20024;-81
2022/03/06 10:36:39;;;;;;;20.67;12.45;;;4.50;99.90;;;;;;5086008;27;20059;-81
2022/03/06 10:39:19;;;;;;;21.38;15.57;;;5.10;99.90;;;;;;5094604;28;20424;-80
2022/03/06 10:41:52;;;;;;;24.55;14.48;;;4.50;99.90;;;;;;5077677;27;20039;-80
2022/03/06 10:44:19;;;;;;;23.00;14.57;;;4.20;99.90;;;;;;5084475;28;20048;-80
2022/03/06 10:47:04;;;;;;;22.00;13.45;;;4.40;99.90;;;;;;5081520;28;20532;-80
2022/03/06 10:49:30;;;;;;;20.73;15.95;;;4.70;99.90;;;;;;5096203;28;20036;-81
2022/03/06 10:51:55;;;;;;;21.15;15.18;;;5.10;99.90;;;;;;5082543;28;20082;-81
2022/03/06 10:54:21;;;;;;;19.67;13.88;;;4.50;99.90;;;;;;5083025;28;20032;-81
2022/03/06 10:56:50;;;;;;;19.02;14.57;;;4.70;99.90;;;;;;5071626;27;20036;-80
2022/03/06 10:59:24;;;;;;;21.73;13.65;;;4.40;99.90;;;;;;5080802;27;20437;-80
2022/03/06 11:01:49;;;;;;;19.67;12.48;;;4.30;99.90;;;;;;5083669;28;20032;-80
2022/03/06 11:04:19;;;;;;;18.33;13.75;;;4.70;99.90;;;;;;5076894;28;20060;-80
2022/03/06 11:06:45;;;;;;;22.40;12.82;;;4.50;99.90;;;;;;5063827;28;20036;-80
2022/03/06 11:09:12;;;;;;;17.80;11.63;;;5.00;99.90;;;;;;5096077;28;20554;-80
2022/03/06 11:11:39;;;;;;;18.52;13.43;;;5.80;99.90;;;;;;5083256;27;20035;-80
2022/03/06 11:14:06;;;;;;;17.50;11.82;;;5.80;99.90;;;;;;5068387;27;20085;-79
2022/03/06 11:16:32;;;;;;;18.92;11.25;;;5.60;99.90;;;;;;5084718;28;20031;-81
2022/03/06 11:18:57;;;;;;;16.42;12.73;;;5.80;99.90;;;;;;5080888;28;20040;-81
2022/03/06 11:21:25;;;;;;;18.05;11.55;;;6.00;99.90;;;;;;5068704;28;20028;-80
2022/03/06 11:23:51;;;;;;;17.55;12.23;;;5.40;99.90;;;;;;5083025;27;20053;-79
2022/03/06 11:26:29;;;;;;;16.58;12.52;;;5.80;99.90;;;;;;5062558;28;20040;-80
2022/03/06 11:29:31;;;;;;;15.88;11.57;;;5.50;99.90;;;;;;5104844;28;20035;-80
2022/03/06 11:32:02;;;;;;;16.20;11.38;;;5.90;99.90;;;;;;5096302;28;20028;-80
2022/03/06 11:34:29;;;;;;;19.65;10.95;;;5.40;99.90;;;;;;5096195;27;20028;-80
2022/03/06 11:36:55;;;;;;;15.45;9.90;;;6.40;99.90;;;;;;5099245;28;20028;-79
2022/03/06 11:39:45;;;;;;;16.73;11.27;;;6.40;99.90;;;;;;5097080;28;20032;-80
2022/03/06 11:42:10;;;;;;;16.17;11.57;;;7.50;99.90;;;;;;5090577;28;20032;-79
2022/03/06 11:44:48;;;;;;;18.30;11.95;;;7.10;99.90;;;;;;5079650;27;20096;-79
2022/03/06 11:47:35;;;;;;;14.27;10.07;;;7.10;99.90;;;;;;5096680;28;20521;-79
2022/03/06 11:50:00;;;;;;;14.10;10.60;;;6.40;99.90;;;;;;5101299;28;20030;-80
2022/03/06 11:52:27;;;;;;;16.02;11.40;;;7.00;99.90;;;;;;5093945;28;20107;-79
2022/03/06 11:54:53;;;;;;;18.23;11.48;;;7.10;99.90;;;;;;5088414;28;20035;-79
2022/03/06 11:57:37;;;;;;;15.57;10.60;;;6.60;99.90;;;;;;5082384;27;20039;-80
2022/03/06 12:00:24;;;;;;;15.07;11.52;;;6.90;99.90;;;;;;5082363;27;20034;-79
2022/03/06 12:02:54;;;;;;;14.23;10.57;;;7.00;99.90;;;;;;5079700;27;20052;-79
2022/03/06 12:05:20;;;;;;;17.05;11.45;;;6.80;99.90;;;;;;5081589;28;20039;-80
2022/03/06 12:07:46;;;;;;;16.35;12.27;;;7.50;99.90;;;;;;5081695;28;20024;-79
2022/03/06 12:10:12;;;;;;;16.35;11.20;;;7.70;99.90;;;;;;5097044;28;20539;-80
2022/03/06 12:12:37;;;;;;;14.93;10.48;;;7.90;99.90;;;;;;5080594;28;20032;-79
2022/03/06 12:15:14;;;;;;;18.52;12.98;;;7.90;99.90;;;;;;5078375;28;20031;-80
2022/03/06 12:17:39;;;;;;;17.27;13.02;;;8.00;99.90;;;;;;5062959;27;20032;-79
2022/03/06 12:20:08;;;;;;;18.52;14.77;;;8.00;99.90;;;;;;5076630;28;20568;-79
2022/03/06 12:22:34;;;;;;;22.58;14.40;;;8.10;99.90;;;;;;5098440;28;20077;-79
2022/03/06 12:25:06;;;;;;;18.90;14.55;;;7.90;99.90;;;;;;5093724;28;20029;-79
2022/03/06 12:27:32;;;;;;;18.13;13.50;;;8.00;99.90;;;;;;5096329;28;20042;-79
2022/03/06 12:29:58;;;;;;;19.98;14.82;;;7.80;99.90;;;;;;5096565;28;20024;-81
2022/03/06 12:32:31;;;;;;;19.48;14.27;;;7.70;99.90;;;;;;5064317;28;20055;-79